Impacts METAR Board INFO
IDs:

KMCO - Orlando Intl, FL, US

Updated at: 1103 UTC 16 Dec 2017
Potential Impact None Slight Moderate High
Time15/23Z 16/00Z 16/01Z 16/02Z 16/03Z 16/04Z 16/05Z 16/06Z 16/07Z 16/08Z 16/09Z 16/10Z 16/11Z
VIS10 10 10 10 10 10 10 10 10 10 10 10 10
CIG300 300 -- -- -- -- -- -- -- -- -- -- 14
CoverBKNBKNFEWCLRCLRFEWCLRCLRCLRCLRCLRSCTBKN
FltCatVFRVFRVFRVFRVFRVFRVFRVFRVFRVFRVFRVFRMVFR
WX--------------------------
WDir29030032031029001900190210036010
WSpd7 6 5 5 4 0 3 0 3 3 0 6 6
WGst-- -- -- -- -- -- -- -- -- -- -- -- --
Raw hourly METARs
KMCO 152253Z 29007KT 10SM FEW100 BKN300 21/10 A3009 RMK AO2 SLP188 T02110100
KMCO 152353Z 30006KT 10SM BKN300 20/10 A3012 RMK AO2 SLP197 T02000100 10250 20200 53025
KMCO 160053Z 32005KT 10SM FEW300 18/11 A3013 RMK AO2 SLP202 T01830106
KMCO 160153Z 31005KT 10SM CLR 17/11 A3015 RMK AO2 SLP208 T01670106
KMCO 160253Z 29004KT 10SM CLR 16/11 A3017 RMK AO2 SLP213 T01610111 52017
KMCO 160353Z 00000KT 10SM FEW004 15/12 A3017 RMK AO2 SLP214 FU FEW004 T01500117
KMCO 160453Z 19003KT 10SM CLR 13/11 A3018 RMK AO2 SLP216 T01280111 402500128
KMCO 160553Z 00000KT 10SM CLR 13/12 A3017 RMK AO2 SLP216 T01330117 10200 20122 50003
KMCO 160653Z 19003KT 10SM CLR 13/12 A3017 RMK AO2 SLP214 T01280117
KMCO 160753Z 21003KT 10SM CLR 13/12 A3016 RMK AO2 SLP212 T01280117
KMCO 160853Z 00000KT 10SM CLR 13/12 A3017 RMK AO2 SLP214 T01280117 55001
KMCO 161005Z 36006KT 10SM SCT010 14/13 A3018 RMK AO2 T01390133
KMCO 161053Z 01006KT 10SM BKN014 13/11 A3019 RMK AO2 SLP223 T01330111